createdAt,value
2018-07-12T00:02:16.472Z,14.90
2018-07-12T00:12:17.723Z,14.90
2018-07-12T00:22:18.973Z,14.80
2018-07-12T00:32:20.252Z,14.80
2018-07-12T00:42:21.522Z,14.70
2018-07-12T00:52:22.775Z,14.70
2018-07-12T01:02:26.150Z,14.50
2018-07-12T01:12:27.403Z,14.60
2018-07-12T01:22:28.656Z,14.60
2018-07-12T01:32:29.922Z,14.60
2018-07-12T01:42:31.178Z,14.50
2018-07-12T01:52:32.442Z,14.50
2018-07-12T02:02:34.461Z,14.40
2018-07-12T02:12:36.491Z,14.40
2018-07-12T02:22:37.763Z,14.40
2018-07-12T02:32:42.213Z,14.40
2018-07-12T02:42:43.478Z,14.40
2018-07-12T02:52:44.728Z,14.50
2018-07-12T03:02:46.764Z,14.30
2018-07-12T03:12:48.026Z,14.30
2018-07-12T03:22:49.289Z,14.30
2018-07-12T03:32:50.591Z,14.10
2018-07-12T03:42:51.859Z,14.10
2018-07-12T04:03:00.441Z,14.30
2018-07-12T04:13:01.710Z,14.30
2018-07-12T04:23:02.972Z,14.70
2018-07-12T04:43:10.996Z,15.10
2018-07-12T04:53:13.029Z,15.90
2018-07-12T05:03:14.299Z,15.90
2018-07-12T05:13:15.618Z,16.30
2018-07-12T05:23:20.190Z,16.50
2018-07-12T05:33:21.447Z,16.90
2018-07-12T05:43:23.487Z,17.80
2018-07-12T05:53:25.523Z,18.30
2018-07-12T06:03:26.794Z,18.30
2018-07-12T06:13:28.060Z,18.00
2018-07-12T06:23:30.096Z,17.50
2018-07-12T06:33:33.438Z,17.50
2018-07-12T06:43:34.836Z,17.30
2018-07-12T06:53:36.101Z,18.20
2018-07-12T07:03:38.136Z,20.00
2018-07-12T07:13:39.405Z,19.90
2018-07-12T07:23:41.484Z,20.30
2018-07-12T07:33:42.735Z,20.20
2018-07-12T07:43:44.758Z,22.30
2018-07-12T07:53:46.029Z,22.20
2018-07-12T08:03:47.332Z,23.20
2018-07-12T08:13:48.596Z,22.50
2018-07-12T08:23:50.024Z,25.90
2018-07-12T08:33:52.057Z,30.30
2018-07-12T08:43:53.322Z,30.20
2018-07-12T09:14:08.313Z,26.60
2018-07-12T09:24:09.591Z,31.90
2018-07-12T09:34:10.867Z,33.80
2018-07-12T09:44:12.911Z,36.30
2018-07-12T09:54:14.179Z,36.20
2018-07-12T10:04:16.195Z,36.60
2018-07-12T10:14:18.218Z,33.80
2018-07-12T10:24:20.231Z,33.50
2018-07-12T10:34:21.472Z,33.50
2018-07-12T10:44:22.713Z,29.50
2018-07-12T10:54:23.969Z,27.90
2018-07-12T11:04:25.219Z,26.40
2018-07-12T11:14:26.466Z,25.70
2018-07-12T11:24:27.749Z,25.40
2018-07-12T11:34:28.998Z,25.60
2018-07-12T11:44:30.259Z,25.40
2018-07-12T11:54:31.510Z,25.30
2018-07-12T12:04:33.511Z,25.00
2018-07-12T12:14:34.742Z,24.90
2018-07-12T12:24:36.018Z,24.50
2018-07-12T12:34:37.262Z,24.50
2018-07-12T12:44:38.506Z,24.50
2018-07-12T12:54:39.751Z,24.60
2018-07-12T13:04:40.996Z,25.00
2018-07-12T13:14:42.244Z,24.50
2018-07-12T13:24:44.255Z,25.10
2018-07-12T13:34:46.295Z,24.50
2018-07-12T13:44:47.564Z,24.50
2018-07-12T13:54:49.608Z,24.10
2018-07-12T14:04:50.910Z,24.10
2018-07-12T14:14:52.180Z,23.90
2018-07-12T14:24:54.212Z,23.90
2018-07-12T14:34:55.499Z,23.80
2018-07-12T14:44:56.766Z,23.80
2018-07-12T14:54:58.046Z,23.70
2018-07-12T15:04:59.316Z,23.70
2018-07-12T15:15:00.572Z,23.60
2018-07-12T15:25:01.836Z,23.50
2018-07-12T15:35:03.109Z,23.60
2018-07-12T15:45:04.352Z,23.50
2018-07-12T15:55:06.382Z,23.50
2018-07-12T16:05:07.664Z,23.50
2018-07-12T16:15:09.741Z,23.80
2018-07-12T16:25:11.001Z,23.70
2018-07-12T16:35:12.264Z,23.60
2018-07-12T16:45:14.301Z,23.00
2018-07-12T16:55:15.562Z,22.90
2018-07-12T17:15:24.111Z,22.70
2018-07-12T17:25:26.140Z,21.90
2018-07-12T18:36:13.359Z,20.10
2018-07-12T18:46:14.623Z,19.70
2018-07-12T18:56:15.919Z,19.50
2018-07-12T19:06:21.354Z,19.30
2018-07-12T19:16:23.390Z,18.60
2018-07-12T19:36:32.786Z,18.30
2018-07-12T19:46:34.045Z,18.20
2018-07-12T20:06:44.395Z,17.70
2018-07-12T20:16:47.795Z,17.50
2018-07-12T20:26:49.082Z,17.60
2018-07-12T20:36:50.336Z,17.30
2018-07-12T20:46:51.607Z,17.10
2018-07-12T20:56:52.859Z,16.90
2018-07-12T21:06:54.114Z,16.80
2018-07-12T21:16:56.189Z,16.50
2018-07-12T21:26:57.447Z,16.50
2018-07-12T21:36:58.887Z,16.50
2018-07-12T21:47:00.118Z,16.40
2018-07-12T21:57:01.379Z,16.30
2018-07-12T22:47:32.241Z,15.80
2018-07-12T22:57:33.486Z,15.80
2018-07-12T23:07:34.737Z,15.70
2018-07-12T23:17:35.979Z,15.60
2018-07-12T23:27:37.215Z,15.50
2018-07-12T23:37:38.448Z,15.30
2018-07-12T23:47:40.463Z,15.00
2018-07-12T23:57:42.496Z,15.00
